This is the latest recevied weather packets stored in our database for station/object OE6CUD-6. If no packets are shown the sender has not sent any weather packets the latest 10 day(s).
| Time | Temp. | Humidity | Pressure | Rain* | Wind** | Luminosity | Snow |
|---|---|---|---|---|---|---|---|
| 1777059542 | 12.78° C | 68% | 1014.2 hPa | 0 mm | - | 0 W/m² | - |
| 1777055470 | 15° C | 60% | 1013.8 hPa | 0 mm | - | 0 W/m² | - |
| 1777054410 | 16.11° C | 56% | 1013.8 hPa | 0 mm | - | 0 W/m² | - |
| 1777054110 | 16.67° C | 54% | 1013.8 hPa | 0 mm | - | 0 W/m² | - |
| 1777053202 | 18.33° C | 50% | 1013.7 hPa | 0 mm | - | 5 W/m² | - |
| 1777050782 | 20.56° C | 43% | 1013.6 hPa | 0 mm | - | 16 W/m² | - |
| 1777050483 | 21.11° C | 43% | 1013.6 hPa | 0 mm | - | 18 W/m² | - |
| 1777050182 | 21.67° C | 43% | 1013.6 hPa | 0 mm | - | 23 W/m² | - |
| 1777048982 | 22.22° C | 41% | 1013.6 hPa | 0 mm | - | 153 W/m² | - |
| 1777048383 | 22.22° C | 41% | 1013.6 hPa | 0 mm | - | 181 W/m² | - |
| 1777047777 | 22.78° C | 41% | 1013.7 hPa | 0 mm | - | 95 W/m² | - |
| 1777046864 | 22.78° C | 38% | 1013.6 hPa | 0 mm | - | 264 W/m² | - |
| 1777045956 | 23.33° C | 38% | 1013.7 hPa | 0 mm | - | 308 W/m² | - |
| 1777045053 | 23.33° C | 38% | 1013.7 hPa | 0 mm | - | 355 W/m² | - |
| 1777043238 | 24.44° C | 35% | 1014 hPa | 0 mm | - | 439 W/m² | - |
| 1777042324 | 25° C | 34% | 1014.2 hPa | 0 mm | - | 478 W/m² | - |
| 1777040195 | 25° C | 34% | 1014.2 hPa | 0 mm | - | 563 W/m² | - |
| 1777038389 | 25° C | 33% | 1014.6 hPa | 0 mm | - | 631 W/m² | - |
| 1777036887 | 25° C | 35% | 1014.8 hPa | 0 mm | - | 680 W/m² | - |
| 1777034469 | 23.33° C | 35% | 1015.1 hPa | 0 mm | - | 742 W/m² | - |
| 1777031731 | 23.33° C | 38% | 1015.5 hPa | 0 mm | - | 791 W/m² | - |
| 1777030381 | 23.33° C | 39% | 1016 hPa | 0 mm | - | 807 W/m² | - |
| 1777029916 | 23.33° C | 39% | 1016 hPa | 0 mm | - | 819 W/m² | - |
| 1777026308 | 21.67° C | 38% | 1016.6 hPa | 0 mm | - | 687 W/m² | - |
| 1777026002 | 22.22° C | 39% | 1016.8 hPa | 0 mm | - | 735 W/m² | - |
* Rain latest hour (hover to see other rain measurements)
** Current wind speed in m/s (hover to see current wind gust speed)